sensor_id;sensor_type;location;lat;lon;timestamp;P1;durP1;ratioP1;P2;durP2;ratioP2
59681;SDS011;45548;39.530;-9.118;2022-10-23T07:55:19;32.55;;;8.60;;
59681;SDS011;45548;39.530;-9.118;2022-10-23T07:57:44;35.30;;;8.73;;
59681;SDS011;45548;39.530;-9.118;2022-10-23T08:00:10;37.30;;;8.45;;
59681;SDS011;45548;39.530;-9.118;2022-10-23T08:02:36;39.03;;;9.70;;
59681;SDS011;45548;39.530;-9.118;2022-10-23T08:05:02;39.65;;;9.25;;
59681;SDS011;45548;39.530;-9.118;2022-10-23T08:07:28;32.55;;;8.27;;
59681;SDS011;45548;39.530;-9.118;2022-10-23T08:09:53;36.72;;;8.90;;
59681;SDS011;45548;39.530;-9.118;2022-10-23T08:12:19;32.47;;;7.90;;
59681;SDS011;45548;39.530;-9.118;2022-10-23T08:14:44;37.60;;;9.15;;
59681;SDS011;45548;39.530;-9.118;2022-10-23T08:17:09;34.75;;;8.43;;
59681;SDS011;45548;39.530;-9.118;2022-10-23T08:19:35;28.33;;;7.25;;
59681;SDS011;45548;39.530;-9.118;2022-10-23T08:22:01;31.80;;;8.40;;
59681;SDS011;45548;39.530;-9.118;2022-10-23T08:24:28;40.95;;;9.88;;
59681;SDS011;45548;39.530;-9.118;2022-10-23T08:26:53;35.42;;;9.68;;
59681;SDS011;45548;39.530;-9.118;2022-10-23T08:29:19;38.95;;;8.77;;
59681;SDS011;45548;39.530;-9.118;2022-10-23T08:31:44;32.75;;;8.75;;
59681;SDS011;45548;39.530;-9.118;2022-10-23T08:34:10;30.30;;;9.32;;
59681;SDS011;45548;39.530;-9.118;2022-10-23T08:36:36;38.33;;;10.88;;
59681;SDS011;45548;39.530;-9.118;2022-10-23T08:39:03;39.83;;;10.50;;
59681;SDS011;45548;39.530;-9.118;2022-10-23T08:41:33;35.50;;;9.82;;
59681;SDS011;45548;39.530;-9.118;2022-10-23T08:46:38;38.33;;;9.07;;
59681;SDS011;45548;39.530;-9.118;2022-10-23T08:52:06;30.02;;;8.68;;
59681;SDS011;45548;39.530;-9.118;2022-10-23T08:57:19;26.58;;;7.75;;
59681;SDS011;45548;39.530;-9.118;2022-10-23T08:59:48;32.30;;;8.15;;
59681;SDS011;45548;39.530;-9.118;2022-10-23T09:02:20;25.23;;;8.38;;
59681;SDS011;45548;39.530;-9.118;2022-10-23T09:04:51;28.80;;;8.52;;
59681;SDS011;45548;39.530;-9.118;2022-10-23T09:12:39;33.88;;;8.48;;
59681;SDS011;45548;39.530;-9.118;2022-10-23T09:17:44;35.08;;;9.32;;
59681;SDS011;45548;39.530;-9.118;2022-10-23T09:22:47;32.60;;;8.15;;
59681;SDS011;45548;39.530;-9.118;2022-10-23T09:25:18;32.17;;;9.57;;
59681;SDS011;45548;39.530;-9.118;2022-10-23T09:27:48;31.30;;;9.38;;
59681;SDS011;45548;39.530;-9.118;2022-10-23T09:32:56;34.90;;;8.32;;
59681;SDS011;45548;39.530;-9.118;2022-10-23T09:35:22;28.95;;;8.30;;
59681;SDS011;45548;39.530;-9.118;2022-10-23T09:37:49;37.33;;;8.63;;
59681;SDS011;45548;39.530;-9.118;2022-10-23T09:42:51;33.33;;;8.63;;
59681;SDS011;45548;39.530;-9.118;2022-10-23T09:45:26;32.03;;;8.25;;
59681;SDS011;45548;39.530;-9.118;2022-10-23T09:54:10;33.70;;;9.93;;
59681;SDS011;45548;39.530;-9.118;2022-10-23T09:58:53;29.23;;;7.57;;
59681;SDS011;45548;39.530;-9.118;2022-10-23T10:01:26;20.80;;;6.47;;
59681;SDS011;45548;39.530;-9.118;2022-10-23T10:03:55;23.20;;;6.57;;
59681;SDS011;45548;39.530;-9.118;2022-10-23T10:06:23;23.15;;;7.13;;
59681;SDS011;45548;39.530;-9.118;2022-10-23T10:08:58;24.35;;;5.88;;
59681;SDS011;45548;39.530;-9.118;2022-10-23T10:11:32;22.27;;;5.80;;
59681;SDS011;45548;39.530;-9.118;2022-10-23T10:17:02;26.15;;;7.55;;
59681;SDS011;45548;39.530;-9.118;2022-10-23T10:33:43;31.55;;;8.35;;
59681;SDS011;45548;39.530;-9.118;2022-10-23T10:39:08;30.17;;;7.25;;
59681;SDS011;45548;39.530;-9.118;2022-10-23T10:41:50;31.70;;;9.15;;
59681;SDS011;45548;39.530;-9.118;2022-10-23T10:44:49;27.83;;;7.78;;
59681;SDS011;45548;39.530;-9.118;2022-10-23T10:55:46;26.13;;;7.07;;
59681;SDS011;45548;39.530;-9.118;2022-10-23T10:58:17;26.17;;;8.05;;
59681;SDS011;45548;39.530;-9.118;2022-10-23T11:00:53;27.25;;;7.38;;
59681;SDS011;45548;39.530;-9.118;2022-10-23T11:03:42;31.52;;;7.85;;
59681;SDS011;45548;39.530;-9.118;2022-10-23T11:06:14;34.28;;;8.07;;
59681;SDS011;45548;39.530;-9.118;2022-10-23T11:08:42;29.25;;;8.30;;
59681;SDS011;45548;39.530;-9.118;2022-10-23T11:11:23;25.90;;;6.95;;
59681;SDS011;45548;39.530;-9.118;2022-10-23T11:14:01;32.22;;;8.50;;
59681;SDS011;45548;39.530;-9.118;2022-10-23T11:16:31;27.13;;;7.68;;
59681;SDS011;45548;39.530;-9.118;2022-10-23T11:19:02;26.90;;;6.43;;
59681;SDS011;45548;39.530;-9.118;2022-10-23T11:21:34;21.23;;;6.47;;
59681;SDS011;45548;39.530;-9.118;2022-10-23T11:27:35;24.00;;;6.25;;
59681;SDS011;45548;39.530;-9.118;2022-10-23T11:30:22;23.67;;;6.35;;
59681;SDS011;45548;39.530;-9.118;2022-10-23T11:36:16;24.33;;;6.38;;
59681;SDS011;45548;39.530;-9.118;2022-10-23T11:38:44;19.10;;;5.90;;
59681;SDS011;45548;39.530;-9.118;2022-10-23T11:41:20;23.73;;;7.18;;
59681;SDS011;45548;39.530;-9.118;2022-10-23T11:43:51;20.70;;;5.43;;
59681;SDS011;45548;39.530;-9.118;2022-10-23T11:48:47;19.65;;;5.60;;
59681;SDS011;45548;39.530;-9.118;2022-10-23T12:02:31;24.48;;;5.82;;
59681;SDS011;45548;39.530;-9.118;2022-10-23T12:05:05;23.98;;;6.68;;
59681;SDS011;45548;39.530;-9.118;2022-10-23T12:10:05;27.95;;;6.90;;
59681;SDS011;45548;39.530;-9.118;2022-10-23T12:13:41;25.17;;;6.65;;
59681;SDS011;45548;39.530;-9.118;2022-10-23T12:20:51;30.30;;;7.17;;
59681;SDS011;45548;39.530;-9.118;2022-10-23T12:28:43;20.63;;;5.68;;
59681;SDS011;45548;39.530;-9.118;2022-10-23T12:32:20;23.00;;;6.55;;
59681;SDS011;45548;39.530;-9.118;2022-10-23T12:36:00;21.70;;;5.70;;
59681;SDS011;45548;39.530;-9.118;2022-10-23T12:39:43;24.85;;;6.32;;
59681;SDS011;45548;39.530;-9.118;2022-10-23T12:43:37;24.23;;;6.10;;
59681;SDS011;45548;39.530;-9.118;2022-10-23T12:47:02;23.40;;;6.80;;
59681;SDS011;45548;39.530;-9.118;2022-10-23T12:50:28;24.13;;;6.90;;
59681;SDS011;45548;39.530;-9.118;2022-10-23T12:53:54;38.13;;;15.00;;
59681;SDS011;45548;39.530;-9.118;2022-10-23T12:57:22;34.28;;;9.63;;
59681;SDS011;45548;39.530;-9.118;2022-10-23T13:00:49;20.65;;;5.35;;
59681;SDS011;45548;39.530;-9.118;2022-10-23T13:07:45;22.38;;;6.28;;
59681;SDS011;45548;39.530;-9.118;2022-10-23T13:11:13;27.67;;;6.95;;
59681;SDS011;45548;39.530;-9.118;2022-10-23T13:18:50;38.38;;;12.10;;
59681;SDS011;45548;39.530;-9.118;2022-10-23T13:22:18;39.80;;;11.75;;
59681;SDS011;45548;39.530;-9.118;2022-10-23T13:25:58;44.30;;;13.10;;
59681;SDS011;45548;39.530;-9.118;2022-10-23T13:29:30;50.28;;;13.55;;
59681;SDS011;45548;39.530;-9.118;2022-10-23T13:32:56;39.10;;;10.82;;
59681;SDS011;45548;39.530;-9.118;2022-10-23T13:36:23;40.03;;;11.32;;
59681;SDS011;45548;39.530;-9.118;2022-10-23T13:40:26;47.22;;;11.77;;
59681;SDS011;45548;39.530;-9.118;2022-10-23T13:43:44;69.65;;;19.98;;
59681;SDS011;45548;39.530;-9.118;2022-10-23T13:47:11;58.70;;;19.08;;
59681;SDS011;45548;39.530;-9.118;2022-10-23T13:50:38;59.80;;;17.00;;
59681;SDS011;45548;39.530;-9.118;2022-10-23T13:54:14;64.05;;;15.77;;
59681;SDS011;45548;39.530;-9.118;2022-10-23T13:57:47;58.30;;;16.02;;
59681;SDS011;45548;39.530;-9.118;2022-10-23T14:04:43;43.95;;;13.85;;
59681;SDS011;45548;39.530;-9.118;2022-10-23T14:08:07;45.60;;;12.05;;
59681;SDS011;45548;39.530;-9.118;2022-10-23T14:11:34;58.47;;;15.00;;
59681;SDS011;45548;39.530;-9.118;2022-10-23T14:15:08;54.38;;;15.88;;
59681;SDS011;45548;39.530;-9.118;2022-10-23T14:18:34;72.50;;;21.58;;
59681;SDS011;45548;39.530;-9.118;2022-10-23T14:21:58;43.55;;;12.18;;
59681;SDS011;45548;39.530;-9.118;2022-10-23T14:25:22;50.35;;;13.18;;
59681;SDS011;45548;39.530;-9.118;2022-10-23T14:28:50;54.25;;;16.13;;
59681;SDS011;45548;39.530;-9.118;2022-10-23T14:32:14;67.88;;;17.10;;
59681;SDS011;45548;39.530;-9.118;2022-10-23T14:35:40;47.05;;;11.13;;
59681;SDS011;45548;39.530;-9.118;2022-10-23T14:39:04;45.00;;;11.27;;
59681;SDS011;45548;39.530;-9.118;2022-10-23T14:42:29;26.95;;;5.03;;
59681;SDS011;45548;39.530;-9.118;2022-10-23T14:45:53;20.23;;;5.00;;
59681;SDS011;45548;39.530;-9.118;2022-10-23T14:49:17;24.20;;;5.30;;
59681;SDS011;45548;39.530;-9.118;2022-10-23T14:52:41;18.08;;;4.13;;
59681;SDS011;45548;39.530;-9.118;2022-10-23T14:56:05;19.38;;;5.00;;
59681;SDS011;45548;39.530;-9.118;2022-10-23T14:59:29;17.20;;;4.55;;
59681;SDS011;45548;39.530;-9.118;2022-10-23T15:02:53;17.90;;;4.30;;
59681;SDS011;45548;39.530;-9.118;2022-10-23T15:06:19;21.17;;;4.95;;
59681;SDS011;45548;39.530;-9.118;2022-10-23T15:09:44;19.15;;;4.05;;
59681;SDS011;45548;39.530;-9.118;2022-10-23T15:13:08;21.17;;;4.45;;
59681;SDS011;45548;39.530;-9.118;2022-10-23T15:16:32;18.23;;;4.47;;
59681;SDS011;45548;39.530;-9.118;2022-10-23T15:19:58;18.80;;;5.07;;
59681;SDS011;45548;39.530;-9.118;2022-10-23T15:23:22;19.30;;;4.15;;
59681;SDS011;45548;39.530;-9.118;2022-10-23T15:26:46;20.95;;;4.03;;
59681;SDS011;45548;39.530;-9.118;2022-10-23T15:30:11;14.55;;;3.97;;
59681;SDS011;45548;39.530;-9.118;2022-10-23T15:33:53;21.45;;;5.00;;
59681;SDS011;45548;39.530;-9.118;2022-10-23T15:37:17;27.25;;;8.15;;
59681;SDS011;45548;39.530;-9.118;2022-10-23T15:40:41;26.80;;;6.35;;
59681;SDS011;45548;39.530;-9.118;2022-10-23T15:44:06;22.75;;;7.13;;
59681;SDS011;45548;39.530;-9.118;2022-10-23T15:47:31;28.63;;;7.78;;
59681;SDS011;45548;39.530;-9.118;2022-10-23T15:50:55;29.15;;;8.38;;
59681;SDS011;45548;39.530;-9.118;2022-10-23T15:54:20;20.75;;;5.47;;
59681;SDS011;45548;39.530;-9.118;2022-10-23T15:57:44;22.48;;;5.70;;
59681;SDS011;45548;39.530;-9.118;2022-10-23T16:01:08;23.33;;;6.00;;
59681;SDS011;45548;39.530;-9.118;2022-10-23T16:04:33;20.73;;;5.72;;
59681;SDS011;45548;39.530;-9.118;2022-10-23T16:07:57;28.50;;;6.93;;
59681;SDS011;45548;39.530;-9.118;2022-10-23T16:11:23;23.65;;;5.15;;
59681;SDS011;45548;39.530;-9.118;2022-10-23T16:14:47;22.92;;;5.53;;
59681;SDS011;45548;39.530;-9.118;2022-10-23T16:18:11;21.95;;;5.55;;
59681;SDS011;45548;39.530;-9.118;2022-10-23T16:21:36;24.40;;;6.22;;
59681;SDS011;45548;39.530;-9.118;2022-10-23T16:25:00;24.77;;;5.97;;
59681;SDS011;45548;39.530;-9.118;2022-10-23T16:28:29;18.90;;;5.45;;
59681;SDS011;45548;39.530;-9.118;2022-10-23T16:31:53;21.33;;;5.72;;
59681;SDS011;45548;39.530;-9.118;2022-10-23T16:35:19;21.08;;;4.93;;
59681;SDS011;45548;39.530;-9.118;2022-10-23T16:38:43;15.45;;;3.05;;
59681;SDS011;45548;39.530;-9.118;2022-10-23T16:42:07;15.90;;;3.42;;
59681;SDS011;45548;39.530;-9.118;2022-10-23T16:45:31;11.57;;;3.10;;
59681;SDS011;45548;39.530;-9.118;2022-10-23T16:48:56;15.90;;;3.08;;
59681;SDS011;45548;39.530;-9.118;2022-10-23T16:52:20;16.42;;;3.03;;
59681;SDS011;45548;39.530;-9.118;2022-10-23T16:55:44;14.85;;;2.63;;
59681;SDS011;45548;39.530;-9.118;2022-10-23T16:59:09;12.18;;;2.58;;
59681;SDS011;45548;39.530;-9.118;2022-10-23T17:02:33;16.13;;;2.60;;
59681;SDS011;45548;39.530;-9.118;2022-10-23T17:06:03;17.50;;;3.38;;
59681;SDS011;45548;39.530;-9.118;2022-10-23T17:09:28;13.75;;;3.15;;
59681;SDS011;45548;39.530;-9.118;2022-10-23T17:12:52;17.58;;;3.55;;
59681;SDS011;45548;39.530;-9.118;2022-10-23T17:16:23;11.77;;;2.58;;
59681;SDS011;45548;39.530;-9.118;2022-10-23T17:19:47;10.68;;;2.00;;
59681;SDS011;45548;39.530;-9.118;2022-10-23T17:23:15;16.58;;;2.75;;
59681;SDS011;45548;39.530;-9.118;2022-10-23T17:26:39;11.23;;;1.85;;
59681;SDS011;45548;39.530;-9.118;2022-10-23T17:30:04;10.73;;;2.53;;
59681;SDS011;45548;39.530;-9.118;2022-10-23T17:33:28;10.68;;;2.05;;
59681;SDS011;45548;39.530;-9.118;2022-10-23T17:36:52;11.90;;;2.45;;
59681;SDS011;45548;39.530;-9.118;2022-10-23T17:40:19;9.38;;;2.20;;
59681;SDS011;45548;39.530;-9.118;2022-10-23T17:43:44;10.93;;;2.53;;
59681;SDS011;45548;39.530;-9.118;2022-10-23T17:47:08;12.05;;;2.65;;
59681;SDS011;45548;39.530;-9.118;2022-10-23T17:50:32;11.13;;;2.67;;
59681;SDS011;45548;39.530;-9.118;2022-10-23T17:54:07;15.43;;;3.70;;
59681;SDS011;45548;39.530;-9.118;2022-10-23T17:57:32;15.32;;;3.20;;
59681;SDS011;45548;39.530;-9.118;2022-10-23T18:00:56;16.15;;;3.15;;
59681;SDS011;45548;39.530;-9.118;2022-10-23T18:04:22;15.05;;;2.75;;
59681;SDS011;45548;39.530;-9.118;2022-10-23T18:07:46;10.75;;;2.60;;
59681;SDS011;45548;39.530;-9.118;2022-10-23T18:11:30;15.05;;;3.05;;
59681;SDS011;45548;39.530;-9.118;2022-10-23T18:14:54;17.30;;;3.47;;
59681;SDS011;45548;39.530;-9.118;2022-10-23T18:18:19;14.90;;;2.85;;
59681;SDS011;45548;39.530;-9.118;2022-10-23T18:21:43;18.02;;;3.75;;
59681;SDS011;45548;39.530;-9.118;2022-10-23T18:25:07;13.73;;;3.50;;
59681;SDS011;45548;39.530;-9.118;2022-10-23T18:28:40;15.10;;;3.25;;
59681;SDS011;45548;39.530;-9.118;2022-10-23T18:32:07;16.92;;;3.17;;
59681;SDS011;45548;39.530;-9.118;2022-10-23T18:35:34;14.73;;;2.80;;
59681;SDS011;45548;39.530;-9.118;2022-10-23T18:39:00;13.82;;;2.85;;
59681;SDS011;45548;39.530;-9.118;2022-10-23T18:42:24;14.50;;;3.42;;
59681;SDS011;45548;39.530;-9.118;2022-10-23T18:45:49;16.10;;;4.05;;
59681;SDS011;45548;39.530;-9.118;2022-10-23T18:49:14;16.98;;;3.30;;
59681;SDS011;45548;39.530;-9.118;2022-10-23T18:52:38;19.45;;;5.13;;
59681;SDS011;45548;39.530;-9.118;2022-10-23T18:56:02;16.70;;;4.05;;
59681;SDS011;45548;39.530;-9.118;2022-10-23T18:59:26;14.63;;;3.75;;
59681;SDS011;45548;39.530;-9.118;2022-10-23T19:02:51;16.13;;;3.63;;
59681;SDS011;45548;39.530;-9.118;2022-10-23T19:06:15;18.77;;;3.67;;
59681;SDS011;45548;39.530;-9.118;2022-10-23T19:09:39;16.63;;;3.83;;
59681;SDS011;45548;39.530;-9.118;2022-10-23T19:13:04;14.82;;;3.38;;
59681;SDS011;45548;39.530;-9.118;2022-10-23T19:20:19;15.70;;;3.85;;
59681;SDS011;45548;39.530;-9.118;2022-10-23T19:23:44;14.27;;;3.17;;
59681;SDS011;45548;39.530;-9.118;2022-10-23T19:27:21;18.35;;;4.03;;
59681;SDS011;45548;39.530;-9.118;2022-10-23T19:30:45;15.85;;;3.95;;
59681;SDS011;45548;39.530;-9.118;2022-10-23T19:34:13;15.32;;;3.15;;
59681;SDS011;45548;39.530;-9.118;2022-10-23T19:37:38;16.58;;;3.70;;
59681;SDS011;45548;39.530;-9.118;2022-10-23T19:41:04;14.63;;;3.58;;
59681;SDS011;45548;39.530;-9.118;2022-10-23T19:44:28;11.27;;;3.47;;
59681;SDS011;45548;39.530;-9.118;2022-10-23T19:47:52;14.73;;;3.78;;
59681;SDS011;45548;39.530;-9.118;2022-10-23T19:51:16;16.17;;;3.38;;
59681;SDS011;45548;39.530;-9.118;2022-10-23T19:54:40;16.50;;;3.80;;
59681;SDS011;45548;39.530;-9.118;2022-10-23T19:58:04;16.50;;;4.10;;
59681;SDS011;45548;39.530;-9.118;2022-10-23T20:01:28;16.10;;;4.78;;
59681;SDS011;45548;39.530;-9.118;2022-10-23T20:04:52;18.08;;;4.40;;
59681;SDS011;45548;39.530;-9.118;2022-10-23T20:08:16;13.43;;;4.05;;
59681;SDS011;45548;39.530;-9.118;2022-10-23T20:11:41;14.52;;;3.53;;
59681;SDS011;45548;39.530;-9.118;2022-10-23T20:15:05;16.90;;;3.90;;
59681;SDS011;45548;39.530;-9.118;2022-10-23T20:18:30;20.02;;;4.20;;
59681;SDS011;45548;39.530;-9.118;2022-10-23T20:21:54;15.10;;;3.63;;
59681;SDS011;45548;39.530;-9.118;2022-10-23T20:25:18;15.15;;;3.75;;
59681;SDS011;45548;39.530;-9.118;2022-10-23T20:28:45;13.48;;;3.80;;
59681;SDS011;45548;39.530;-9.118;2022-10-23T20:32:10;16.55;;;4.32;;
59681;SDS011;45548;39.530;-9.118;2022-10-23T20:35:37;19.15;;;4.65;;
59681;SDS011;45548;39.530;-9.118;2022-10-23T20:39:07;17.45;;;4.28;;
59681;SDS011;45548;39.530;-9.118;2022-10-23T20:42:31;22.73;;;5.00;;
59681;SDS011;45548;39.530;-9.118;2022-10-23T20:46:01;16.58;;;3.72;;
59681;SDS011;45548;39.530;-9.118;2022-10-23T20:49:26;15.80;;;4.18;;
59681;SDS011;45548;39.530;-9.118;2022-10-23T20:52:50;18.95;;;4.95;;
59681;SDS011;45548;39.530;-9.118;2022-10-23T20:56:22;12.98;;;3.30;;
59681;SDS011;45548;39.530;-9.118;2022-10-23T20:59:46;16.73;;;4.53;;
59681;SDS011;45548;39.530;-9.118;2022-10-23T21:03:10;15.90;;;4.15;;
59681;SDS011;45548;39.530;-9.118;2022-10-23T21:06:38;17.17;;;4.15;;
59681;SDS011;45548;39.530;-9.118;2022-10-23T21:10:03;19.20;;;4.30;;
59681;SDS011;45548;39.530;-9.118;2022-10-23T21:13:27;16.85;;;4.18;;
